createdAt,value
2019-06-26T00:00:36.470Z,14.60
2019-06-26T00:03:05.694Z,16.20
2019-06-26T00:05:35.144Z,13.90
2019-06-26T00:08:04.701Z,13.15
2019-06-26T00:10:34.284Z,12.60
2019-06-26T00:13:03.826Z,13.03
2019-06-26T00:15:33.353Z,12.95
2019-06-26T00:18:02.829Z,13.40
2019-06-26T00:20:32.280Z,13.22
2019-06-26T00:23:01.757Z,15.95
2019-06-26T00:25:31.217Z,14.87
2019-06-26T00:28:00.691Z,15.95
2019-06-26T00:30:30.145Z,17.57
2019-06-26T00:32:59.624Z,19.15
2019-06-26T00:35:29.069Z,18.90
2019-06-26T00:37:58.567Z,19.45
2019-06-26T00:40:28.008Z,19.65
2019-06-26T00:42:57.477Z,20.02
2019-06-26T00:45:26.934Z,17.80
2019-06-26T00:47:56.478Z,18.25
2019-06-26T00:50:25.929Z,16.82
2019-06-26T00:52:55.477Z,18.07
2019-06-26T00:55:24.934Z,16.23
2019-06-26T00:57:54.401Z,19.37
2019-06-26T01:00:35.813Z,19.57
2019-06-26T01:03:05.353Z,21.97
2019-06-26T01:05:34.818Z,23.55
2019-06-26T01:08:04.357Z,24.95
2019-06-26T01:10:33.813Z,25.45
2019-06-26T01:13:03.321Z,23.47
2019-06-26T01:15:32.744Z,23.62
2019-06-26T01:18:02.285Z,20.72
2019-06-26T01:20:31.747Z,19.77
2019-06-26T01:23:01.233Z,18.73
2019-06-26T01:25:30.748Z,18.90
2019-06-26T01:28:00.183Z,17.40
2019-06-26T01:30:29.784Z,15.88
2019-06-26T01:32:59.271Z,15.78
2019-06-26T01:35:28.798Z,15.18
2019-06-26T01:37:58.282Z,15.83
2019-06-26T01:40:27.751Z,14.85
2019-06-26T01:42:57.239Z,15.10
2019-06-26T01:45:26.694Z,16.48
2019-06-26T01:47:56.174Z,15.90
2019-06-26T01:50:25.715Z,14.83
2019-06-26T01:52:55.203Z,16.25
2019-06-26T01:55:24.660Z,15.18
2019-06-26T01:57:54.137Z,15.08
2019-06-26T02:00:24.347Z,14.83
2019-06-26T02:02:53.840Z,15.85
2019-06-26T02:05:23.294Z,15.03
2019-06-26T02:07:52.793Z,15.18
2019-06-26T02:10:22.703Z,15.43
2019-06-26T02:15:21.513Z,14.60
2019-06-26T02:17:51.067Z,14.78
2019-06-26T02:20:20.522Z,15.20
2019-06-26T02:22:50.010Z,14.87
2019-06-26T02:25:20.542Z,14.25
2019-06-26T02:27:50.095Z,14.55
2019-06-26T02:30:20.614Z,14.25
2019-06-26T02:32:51.059Z,15.20
2019-06-26T02:35:20.526Z,15.13
2019-06-26T02:37:50.004Z,14.73
2019-06-26T02:40:19.806Z,15.40
2019-06-26T02:45:17.983Z,16.23
2019-06-26T02:48:20.861Z,17.85
2019-06-26T02:50:50.387Z,15.72
2019-06-26T02:53:21.020Z,17.55
2019-06-26T02:55:50.475Z,17.42
2019-06-26T02:58:19.960Z,18.07
2019-06-26T03:00:49.486Z,16.60
2019-06-26T03:03:18.975Z,16.82
2019-06-26T03:05:48.444Z,19.35
2019-06-26T03:08:17.910Z,17.12
2019-06-26T03:10:47.451Z,17.50
2019-06-26T03:13:17.020Z,15.43
2019-06-26T03:15:49.525Z,14.63
2019-06-26T03:18:17.663Z,17.75
2019-06-26T03:20:56.615Z,17.80
2019-06-26T03:23:26.110Z,19.07
2019-06-26T03:25:55.571Z,18.92
2019-06-26T03:28:25.198Z,17.05
2019-06-26T03:30:54.754Z,17.77
2019-06-26T03:33:24.231Z,16.87
2019-06-26T03:35:53.702Z,17.50
2019-06-26T03:38:23.226Z,17.32
2019-06-26T03:40:52.710Z,17.45
2019-06-26T03:43:22.177Z,17.55
2019-06-26T03:45:51.673Z,18.73
2019-06-26T03:48:21.136Z,18.77
2019-06-26T03:50:50.604Z,19.37
2019-06-26T03:53:20.058Z,18.55
2019-06-26T03:55:49.574Z,18.73
2019-06-26T03:58:19.028Z,19.37
2019-06-26T04:00:48.643Z,17.92
2019-06-26T04:03:18.120Z,18.55
2019-06-26T04:05:47.587Z,18.65
2019-06-26T04:08:17.118Z,18.62
2019-06-26T04:10:46.595Z,18.98
2019-06-26T04:13:16.058Z,19.20
2019-06-26T04:15:45.622Z,18.23
2019-06-26T04:18:15.089Z,18.87
2019-06-26T04:20:44.667Z,18.30
2019-06-26T04:23:14.082Z,17.27
2019-06-26T04:25:43.574Z,17.30
2019-06-26T04:28:13.043Z,16.87
2019-06-26T04:30:42.513Z,15.03
2019-06-26T04:33:11.962Z,15.53
2019-06-26T04:35:41.454Z,14.80
2019-06-26T04:38:10.975Z,13.85
2019-06-26T04:40:40.387Z,13.35
2019-06-26T04:43:09.852Z,13.85
2019-06-26T04:45:39.499Z,15.80
2019-06-26T04:48:08.951Z,15.08
2019-06-26T04:50:38.430Z,14.85
2019-06-26T04:53:07.897Z,15.98
2019-06-26T04:55:37.442Z,15.05
2019-06-26T04:58:06.965Z,16.37
2019-06-26T05:00:36.445Z,16.12
2019-06-26T05:03:05.966Z,15.75
2019-06-26T05:05:39.412Z,16.02
2019-06-26T05:08:06.519Z,16.52
2019-06-26T05:10:36.004Z,16.32
2019-06-26T05:13:05.520Z,17.48
2019-06-26T05:15:34.993Z,16.77
2019-06-26T05:18:04.577Z,19.35
2019-06-26T05:20:34.116Z,19.48
2019-06-26T05:23:03.609Z,17.20
2019-06-26T05:25:33.093Z,17.60
2019-06-26T05:28:02.545Z,16.52
2019-06-26T05:30:32.034Z,16.77
2019-06-26T05:33:02.545Z,15.18
2019-06-26T05:35:34.884Z,14.87
2019-06-26T05:38:03.140Z,14.80
2019-06-26T05:40:32.617Z,15.28
2019-06-26T05:43:02.081Z,15.25
2019-06-26T05:45:31.557Z,16.37
2019-06-26T05:48:01.013Z,16.50
2019-06-26T05:50:30.561Z,16.05
2019-06-26T05:53:00.009Z,15.35
2019-06-26T05:55:29.488Z,13.53
2019-06-26T05:57:58.947Z,14.63
2019-06-26T06:00:28.513Z,14.85
2019-06-26T06:02:58.033Z,13.70
2019-06-26T06:05:27.502Z,14.45
2019-06-26T06:07:56.977Z,15.25
2019-06-26T06:10:26.567Z,13.70
2019-06-26T06:12:56.117Z,13.60
2019-06-26T06:15:25.566Z,16.37
2019-06-26T06:17:55.114Z,19.48
2019-06-26T06:20:30.793Z,16.27
2019-06-26T06:23:00.275Z,17.12
2019-06-26T06:25:29.736Z,17.85
2019-06-26T06:27:59.205Z,13.30
2019-06-26T06:30:28.818Z,12.25
2019-06-26T06:32:58.282Z,11.80
2019-06-26T06:35:27.755Z,11.28
2019-06-26T06:37:57.350Z,10.15
2019-06-26T06:40:26.802Z,11.25
2019-06-26T06:42:56.350Z,9.70
2019-06-26T06:45:26.342Z,10.78
2019-06-26T06:47:55.822Z,10.35
2019-06-26T06:50:25.284Z,11.33
2019-06-26T06:52:54.822Z,10.70
2019-06-26T06:55:24.276Z,11.05
2019-06-26T06:57:54.225Z,10.82
2019-06-26T07:00:24.414Z,10.43
2019-06-26T07:02:53.881Z,9.85
2019-06-26T07:05:23.334Z,11.43
2019-06-26T07:07:52.806Z,11.10
2019-06-26T07:10:22.270Z,11.30
2019-06-26T07:12:51.872Z,11.55
2019-06-26T07:15:22.505Z,10.40
2019-06-26T07:20:20.906Z,10.72
2019-06-26T07:25:19.121Z,11.68
2019-06-26T07:27:48.600Z,11.68
2019-06-26T07:30:18.497Z,10.93
2019-06-26T07:32:47.982Z,10.68
2019-06-26T07:35:17.509Z,10.58
2019-06-26T07:37:46.986Z,11.40
2019-06-26T07:40:17.278Z,11.35
2019-06-26T07:42:47.802Z,11.10
2019-06-26T07:45:17.399Z,10.65
2019-06-26T07:47:46.942Z,10.78
2019-06-26T07:50:16.735Z,11.22
2019-06-26T07:55:14.952Z,10.48
2019-06-26T07:57:44.498Z,11.08
2019-06-26T08:00:14.696Z,11.15
2019-06-26T08:02:44.157Z,10.65
2019-06-26T08:05:14.866Z,10.88
2019-06-26T08:07:44.399Z,10.75
2019-06-26T08:10:15.194Z,10.23
2019-06-26T08:12:44.670Z,10.82
2019-06-26T08:15:14.269Z,10.00
2019-06-26T08:17:59.290Z,10.23
2019-06-26T08:20:16.193Z,10.25
2019-06-26T08:22:45.670Z,10.23
2019-06-26T08:25:16.064Z,9.50
2019-06-26T08:27:45.612Z,10.13
2019-06-26T08:32:44.039Z,10.70
2019-06-26T08:35:13.848Z,10.05
2019-06-26T08:37:43.312Z,10.20
2019-06-26T08:40:14.415Z,10.23
2019-06-26T08:42:43.891Z,10.60
2019-06-26T08:45:13.413Z,10.40
2019-06-26T08:50:11.917Z,10.48
2019-06-26T08:52:41.383Z,9.95
2019-06-26T08:55:12.410Z,11.00
2019-06-26T08:57:41.926Z,10.43
2019-06-26T09:02:40.449Z,10.75
2019-06-26T09:05:09.957Z,10.75
2019-06-26T09:10:09.063Z,11.05
2019-06-26T09:12:38.520Z,11.22
2019-06-26T09:15:09.244Z,11.05
2019-06-26T09:17:38.690Z,10.82
2019-06-26T09:20:08.798Z,11.73
2019-06-26T09:22:39.289Z,10.75
2019-06-26T09:25:21.805Z,11.83
2019-06-26T09:27:41.421Z,11.75
2019-06-26T09:32:39.953Z,10.82
2019-06-26T09:35:09.669Z,10.45
2019-06-26T09:37:39.118Z,11.43
2019-06-26T09:40:09.064Z,11.60
2019-06-26T09:42:38.498Z,10.78
2019-06-26T09:45:08.826Z,11.73
2019-06-26T09:47:38.274Z,10.78
2019-06-26T09:52:36.884Z,11.50
2019-06-26T09:57:36.111Z,10.23
2019-06-26T10:02:36.188Z,10.80
2019-06-26T10:07:35.425Z,10.13
2019-06-26T10:12:33.966Z,9.63
2019-06-26T10:17:33.331Z,9.80
2019-06-26T10:20:03.307Z,8.65
2019-06-26T10:22:32.726Z,8.20
2019-06-26T10:27:30.869Z,8.15
2019-06-26T10:32:28.935Z,8.08
2019-06-26T10:34:58.400Z,7.75
2019-06-26T10:37:27.922Z,8.20
2019-06-26T10:39:57.398Z,7.50
2019-06-26T10:42:26.846Z,8.20
2019-06-26T10:44:56.321Z,7.22
2019-06-26T10:48:16.394Z,7.90
2019-06-26T10:50:51.150Z,8.30
2019-06-26T10:53:17.248Z,8.03
2019-06-26T10:56:00.533Z,7.80
2019-06-26T10:58:30.204Z,8.30
2019-06-26T11:00:59.821Z,8.20
2019-06-26T11:03:29.275Z,8.28
2019-06-26T11:05:58.751Z,7.60
2019-06-26T11:08:29.230Z,8.75
2019-06-26T11:10:59.038Z,7.03
2019-06-26T11:13:28.518Z,7.40
2019-06-26T11:15:58.042Z,7.37
2019-06-26T11:18:27.530Z,7.20
2019-06-26T11:20:58.889Z,7.20
2019-06-26T11:23:28.341Z,7.12
2019-06-26T11:25:57.833Z,6.00
2019-06-26T11:28:27.262Z,6.00
2019-06-26T11:30:56.750Z,6.37
2019-06-26T11:33:26.173Z,6.35
2019-06-26T11:35:55.645Z,6.33
2019-06-26T11:38:25.109Z,6.72
2019-06-26T11:40:54.642Z,6.10
2019-06-26T11:43:24.090Z,6.53
2019-06-26T11:45:53.567Z,7.08
2019-06-26T11:48:23.032Z,6.25
2019-06-26T11:50:52.639Z,6.80
2019-06-26T11:53:22.081Z,7.35
2019-06-26T11:55:51.609Z,6.28
2019-06-26T11:58:21.061Z,6.30
2019-06-26T12:00:50.537Z,6.75
2019-06-26T12:03:20.009Z,6.55
2019-06-26T12:05:49.572Z,6.78
2019-06-26T12:08:18.977Z,7.78
2019-06-26T12:10:48.454Z,6.95
2019-06-26T12:13:17.973Z,7.03
2019-06-26T12:15:47.463Z,6.83
2019-06-26T12:18:16.901Z,7.75
2019-06-26T12:20:46.377Z,7.03
2019-06-26T12:23:15.821Z,7.00
2019-06-26T12:25:45.461Z,7.78
2019-06-26T12:28:14.924Z,7.50
2019-06-26T12:30:44.506Z,7.80
2019-06-26T12:33:13.957Z,6.67
2019-06-26T12:35:43.492Z,7.20
2019-06-26T12:38:13.107Z,6.78
2019-06-26T12:40:42.650Z,7.12
2019-06-26T12:43:12.189Z,7.08
2019-06-26T12:45:51.865Z,7.95
2019-06-26T12:48:21.310Z,7.30
2019-06-26T12:50:50.781Z,6.83
2019-06-26T12:53:20.337Z,7.87
2019-06-26T12:55:50.262Z,7.78
2019-06-26T12:58:20.329Z,7.85
2019-06-26T13:00:49.886Z,7.47
2019-06-26T13:03:19.333Z,7.50
2019-06-26T13:05:48.786Z,7.50
2019-06-26T13:08:18.254Z,7.50
2019-06-26T13:10:49.955Z,7.97
2019-06-26T13:13:18.865Z,7.90
2019-06-26T13:15:51.075Z,7.58
2019-06-26T13:18:20.479Z,7.85
2019-06-26T13:20:53.201Z,8.58
2019-06-26T13:23:21.029Z,8.08
2019-06-26T13:25:50.487Z,8.28
2019-06-26T13:28:20.163Z,8.28
2019-06-26T13:30:53.080Z,7.83
2019-06-26T13:33:20.704Z,7.75
2019-06-26T13:35:50.161Z,7.78
2019-06-26T13:38:19.622Z,8.23
2019-06-26T13:40:49.078Z,8.18
2019-06-26T13:43:18.551Z,8.55
2019-06-26T13:45:48.006Z,8.68
2019-06-26T13:48:17.547Z,8.95
2019-06-26T13:50:47.013Z,9.45
2019-06-26T13:53:16.505Z,8.90
2019-06-26T13:55:45.939Z,8.40
2019-06-26T13:58:15.415Z,9.50
2019-06-26T14:00:44.871Z,8.55
2019-06-26T14:03:14.346Z,8.85
2019-06-26T14:05:43.928Z,8.45
2019-06-26T14:08:13.348Z,8.78
2019-06-26T14:10:42.817Z,8.40
2019-06-26T14:13:12.279Z,8.28
2019-06-26T14:15:41.731Z,8.55
2019-06-26T14:18:11.278Z,9.10
2019-06-26T14:20:41.798Z,9.18
2019-06-26T14:23:11.275Z,8.60
2019-06-26T14:25:40.730Z,8.63
2019-06-26T14:28:10.203Z,8.88
2019-06-26T14:30:39.658Z,8.70
2019-06-26T14:33:09.203Z,8.95
2019-06-26T14:35:38.695Z,8.33
2019-06-26T14:38:08.163Z,8.78
2019-06-26T14:40:37.622Z,8.63
2019-06-26T14:43:08.075Z,9.35
2019-06-26T14:45:37.520Z,8.13
2019-06-26T14:48:07.062Z,8.85
2019-06-26T14:50:36.585Z,8.45
2019-06-26T14:53:06.209Z,9.28
2019-06-26T14:55:35.662Z,10.08
2019-06-26T14:58:05.145Z,8.95
2019-06-26T15:00:34.598Z,10.20
2019-06-26T15:03:04.671Z,9.55
2019-06-26T15:05:35.096Z,9.13
2019-06-26T15:08:04.570Z,9.70
2019-06-26T15:10:34.099Z,8.83
2019-06-26T15:13:03.651Z,10.30
2019-06-26T15:15:34.143Z,9.28
2019-06-26T15:18:04.239Z,9.63
2019-06-26T15:20:33.899Z,9.40
2019-06-26T15:23:03.375Z,10.23
2019-06-26T15:25:32.838Z,9.85
2019-06-26T15:28:02.319Z,9.48
2019-06-26T15:30:31.859Z,9.18
2019-06-26T15:33:10.060Z,9.83
2019-06-26T15:35:39.511Z,9.88
2019-06-26T15:38:08.994Z,10.15
2019-06-26T15:40:38.459Z,10.30
2019-06-26T15:43:07.942Z,9.73
2019-06-26T15:45:37.398Z,9.53
2019-06-26T15:48:06.926Z,9.25
2019-06-26T15:50:43.771Z,9.25
2019-06-26T15:53:13.254Z,9.15
2019-06-26T15:55:42.713Z,9.60
2019-06-26T15:58:12.166Z,8.75
2019-06-26T16:00:41.646Z,9.05
2019-06-26T16:03:11.214Z,8.98
2019-06-26T16:05:41.646Z,9.30
2019-06-26T16:08:11.104Z,8.98
2019-06-26T16:10:40.586Z,8.83
2019-06-26T16:13:10.043Z,8.88
2019-06-26T16:15:39.900Z,9.70
2019-06-26T16:18:27.890Z,9.20
2019-06-26T16:20:57.368Z,8.78
2019-06-26T16:23:26.825Z,8.95
2019-06-26T16:25:57.112Z,8.35
2019-06-26T16:28:26.575Z,8.73
2019-06-26T16:30:56.050Z,8.88
2019-06-26T16:33:25.515Z,9.33
2019-06-26T16:35:54.989Z,8.50
2019-06-26T16:38:24.442Z,9.00
2019-06-26T16:43:22.521Z,9.55
2019-06-26T16:48:20.598Z,9.25
2019-06-26T16:53:19.746Z,8.60
2019-06-26T16:58:17.811Z,8.73
2019-06-26T17:03:16.176Z,9.40
2019-06-26T17:05:45.640Z,8.80
2019-06-26T17:10:43.955Z,8.60
2019-06-26T17:13:13.414Z,8.23
2019-06-26T17:18:11.498Z,8.03
2019-06-26T17:23:09.728Z,8.30
2019-06-26T17:25:39.212Z,7.62
2019-06-26T17:30:37.285Z,8.68
2019-06-26T17:35:35.362Z,8.83
2019-06-26T17:40:33.723Z,8.33
2019-06-26T17:43:12.289Z,7.72
2019-06-26T17:45:34.332Z,7.30
2019-06-26T17:50:32.402Z,7.15
2019-06-26T17:53:01.863Z,7.58
2019-06-26T17:55:31.344Z,7.55
2019-06-26T17:58:00.803Z,8.03
2019-06-26T18:00:35.435Z,7.60
2019-06-26T18:03:05.350Z,7.20
2019-06-26T18:05:34.826Z,7.37
2019-06-26T18:10:32.991Z,8.28
2019-06-26T18:13:02.450Z,8.05
2019-06-26T18:15:31.922Z,8.28
2019-06-26T18:18:01.406Z,8.60
2019-06-26T18:20:30.862Z,8.75
2019-06-26T18:23:06.979Z,8.53
2019-06-26T18:25:31.415Z,9.00
2019-06-26T18:28:00.874Z,8.70
2019-06-26T18:30:30.434Z,8.28
2019-06-26T18:32:59.883Z,8.20
2019-06-26T18:35:29.363Z,8.53
2019-06-26T18:37:58.830Z,7.83
2019-06-26T18:40:28.298Z,8.48
2019-06-26T18:42:58.827Z,8.70
2019-06-26T18:45:28.327Z,8.48
2019-06-26T18:47:57.785Z,8.25
2019-06-26T18:50:27.242Z,8.20
2019-06-26T18:52:56.726Z,9.08
2019-06-26T18:55:26.178Z,8.33
2019-06-26T18:57:55.731Z,8.53
2019-06-26T19:00:25.519Z,8.15
2019-06-26T19:02:55.003Z,9.05
2019-06-26T19:05:25.526Z,8.73
2019-06-26T19:07:55.007Z,8.68
2019-06-26T19:10:24.534Z,8.73
2019-06-26T19:12:54.023Z,8.58
2019-06-26T19:15:23.470Z,9.45
2019-06-26T19:17:52.951Z,9.40
2019-06-26T19:20:43.562Z,9.08
2019-06-26T19:23:13.047Z,9.33
2019-06-26T19:25:42.502Z,10.08
2019-06-26T19:28:11.982Z,9.58
2019-06-26T19:30:41.439Z,9.25
2019-06-26T19:33:10.919Z,8.98
2019-06-26T19:35:40.378Z,9.45
2019-06-26T19:38:09.868Z,8.88
2019-06-26T19:40:39.328Z,9.03
2019-06-26T19:43:11.026Z,8.85
2019-06-26T19:45:39.888Z,9.20
2019-06-26T19:48:09.376Z,9.68
2019-06-26T19:50:38.830Z,9.20
2019-06-26T19:53:08.421Z,9.38
2019-06-26T19:55:37.942Z,9.43
2019-06-26T19:58:07.600Z,8.90
2019-06-26T20:03:24.179Z,9.53
2019-06-26T20:05:53.707Z,8.35
2019-06-26T20:08:23.160Z,9.13
2019-06-26T20:10:52.648Z,9.55
2019-06-26T20:13:22.102Z,9.23
2019-06-26T20:15:51.598Z,10.05
2019-06-26T20:18:22.127Z,9.63
2019-06-26T20:20:51.634Z,9.98
2019-06-26T20:23:21.070Z,9.48
2019-06-26T20:25:51.541Z,10.20
2019-06-26T20:28:20.978Z,9.63
2019-06-26T20:30:50.456Z,9.43
2019-06-26T20:33:19.920Z,10.35
2019-06-26T20:35:49.439Z,9.63
2019-06-26T20:38:18.868Z,10.30
2019-06-26T20:40:48.359Z,10.18
2019-06-26T20:43:17.819Z,9.40
2019-06-26T20:45:47.302Z,10.15
2019-06-26T20:48:18.506Z,10.03
2019-06-26T20:50:47.991Z,10.80
2019-06-26T20:53:17.445Z,9.28
2019-06-26T20:55:46.928Z,9.88
2019-06-26T20:58:16.382Z,9.35
2019-06-26T21:00:45.862Z,10.50
2019-06-26T21:03:15.392Z,10.03
2019-06-26T21:05:44.880Z,9.85
2019-06-26T21:08:14.335Z,10.38
2019-06-26T21:10:43.810Z,10.03
2019-06-26T21:13:13.280Z,10.28
2019-06-26T21:15:42.761Z,10.38
2019-06-26T21:18:12.213Z,10.65
2019-06-26T21:20:41.696Z,10.95
2019-06-26T21:23:18.339Z,11.28
2019-06-26T21:25:42.300Z,11.35
2019-06-26T21:28:12.831Z,12.03
2019-06-26T21:30:42.314Z,11.05
2019-06-26T21:33:11.883Z,11.15
2019-06-26T21:35:41.378Z,10.48
2019-06-26T21:38:10.852Z,11.03
2019-06-26T21:40:40.322Z,11.28
2019-06-26T21:43:09.795Z,13.45
2019-06-26T21:45:39.285Z,12.75
2019-06-26T21:48:08.739Z,11.75
2019-06-26T21:50:49.476Z,10.95
2019-06-26T21:53:18.924Z,12.03
2019-06-26T21:56:06.659Z,11.93
2019-06-26T21:58:54.345Z,12.00
2019-06-26T22:01:42.055Z,11.35
2019-06-26T22:04:59.242Z,10.72
2019-06-26T22:07:46.603Z,11.73
2019-06-26T22:10:26.461Z,11.12
2019-06-26T22:12:56.014Z,11.80
2019-06-26T22:15:25.543Z,11.75
2019-06-26T22:17:55.194Z,11.18
2019-06-26T22:20:24.674Z,11.68
2019-06-26T22:22:54.146Z,11.78
2019-06-26T22:25:23.913Z,11.20
2019-06-26T22:27:53.407Z,11.12
2019-06-26T22:30:23.136Z,10.50
2019-06-26T22:32:52.671Z,11.00
2019-06-26T22:35:22.202Z,10.85
2019-06-26T22:37:51.694Z,10.00
2019-06-26T22:40:21.158Z,10.72
2019-06-26T22:42:50.638Z,11.12
2019-06-26T22:45:20.340Z,11.22
2019-06-26T22:47:49.818Z,11.18
2019-06-26T22:50:19.532Z,11.60
2019-06-26T22:52:49.094Z,10.48
2019-06-26T22:55:18.631Z,11.93
2019-06-26T22:57:48.191Z,11.95
2019-06-26T23:00:18.367Z,11.05
2019-06-26T23:02:47.920Z,11.35
2019-06-26T23:05:17.557Z,10.88
2019-06-26T23:07:47.044Z,10.63
2019-06-26T23:10:17.147Z,9.25
2019-06-26T23:12:46.631Z,9.50
2019-06-26T23:15:16.474Z,8.83
2019-06-26T23:20:14.751Z,9.65
2019-06-26T23:22:44.239Z,9.95
2019-06-26T23:25:14.539Z,10.20
2019-06-26T23:27:44.097Z,9.75
2019-06-26T23:30:16.636Z,9.08
2019-06-26T23:32:46.183Z,9.13
2019-06-26T23:35:15.983Z,8.98
2019-06-26T23:40:14.710Z,10.40
2019-06-26T23:42:44.204Z,9.53
2019-06-26T23:45:14.412Z,9.45
2019-06-26T23:47:43.896Z,9.28
2019-06-26T23:50:13.452Z,8.70
2019-06-26T23:52:42.921Z,10.15
2019-06-26T23:58:36.109Z,9.13
